KRTN/RTN METAR and TAF weather

Enter ICAO airport designator
Station Type Date Time Source
KRTN METAR 2019/12/12 08:53 UTC NOAA

KRTN 120853Z AUTO 04006KT 10SM CLR M04/M12 A3005 RMK AO2 SLP163 T10391122 53004 $


Station Type Date Time Source
KRTN Decoded METAR 2019/12/12 08:53 UTC NOAA

Raton, Raton Municipal \ Crews Field Airport, NM, United States (KRTN) 36-44-31N 104-39-28W 1939M
Dec 12, 2019 - 03:53 AM EST / 2019.12.12 0853 UTC
Wind: from the NE (040 degrees) at 7 MPH (6 KT):0
Visibility: 10 mile(s):0
Sky conditions: clear
Temperature: 25.0 F (-3.9 C)
Windchill: 17 F (-8 C):1
Dew Point: 10.0 F (-12.2 C)
Relative Humidity: 52%
Pressure (altimeter): 30.05 in. Hg (1017 hPa)
Pressure tendency: 0.01 inches (0.4 hPa) higher than three hours ago
ob: KRTN 120853Z AUTO 04006KT 10SM CLR M04/M12 A3005 RMK AO2 SLP163 T10391122 53004
cycle: 9

Station Type Date Time Source
KRTN TAF UTC NOAA

Error!

Example: see airport list